createdAt,value
2019-04-26T00:01:31.825Z,12.13
2019-04-26T00:04:33.590Z,12.06
2019-04-26T00:07:34.976Z,12.00
2019-04-26T00:10:48.875Z,12.00
2019-04-26T00:14:08.167Z,12.00
2019-04-26T00:17:37.318Z,11.94
2019-04-26T00:20:39.120Z,11.94
2019-04-26T00:23:40.641Z,11.94
2019-04-26T00:26:42.423Z,11.88
2019-04-26T00:29:43.941Z,11.75
2019-04-26T00:32:45.392Z,11.69
2019-04-26T00:35:48.265Z,11.69
2019-04-26T00:38:49.663Z,11.75
2019-04-26T00:41:51.280Z,11.88
2019-04-26T00:44:53.177Z,11.75
2019-04-26T00:47:55.456Z,11.69
2019-04-26T00:50:58.205Z,11.56
2019-04-26T00:54:00.270Z,11.56
2019-04-26T00:57:03.280Z,11.44
2019-04-26T01:00:05.904Z,11.50
2019-04-26T01:03:08.535Z,11.63
2019-04-26T01:06:11.691Z,11.63
2019-04-26T01:09:15.892Z,11.69
2019-04-26T01:12:17.813Z,11.75
2019-04-26T01:15:21.430Z,11.56
2019-04-26T01:18:22.373Z,11.56
2019-04-26T01:21:26.917Z,11.44
2019-04-26T01:24:30.849Z,11.38
2019-04-26T01:27:35.019Z,11.63
2019-04-26T01:30:38.019Z,11.56
2019-04-26T01:33:40.625Z,11.44
2019-04-26T01:36:43.607Z,11.44
2019-04-26T01:39:51.499Z,11.50
2019-04-26T01:43:07.740Z,11.25
2019-04-26T01:46:15.156Z,11.25
2019-04-26T01:49:20.874Z,11.38
2019-04-26T01:52:24.068Z,11.31
2019-04-26T01:55:29.159Z,11.25
2019-04-26T01:58:31.357Z,11.12
2019-04-26T02:01:48.307Z,11.19
2019-04-26T02:04:52.189Z,11.12
2019-04-26T02:07:54.658Z,11.19
2019-04-26T02:10:56.095Z,11.19
2019-04-26T02:13:57.502Z,11.12
2019-04-26T02:16:59.766Z,11.06
2019-04-26T02:20:01.184Z,11.06
2019-04-26T02:23:10.246Z,10.94
2019-04-26T02:26:30.395Z,11.06
2019-04-26T02:29:32.736Z,10.88
2019-04-26T02:32:37.052Z,10.88
2019-04-26T02:35:38.734Z,10.69
2019-04-26T02:38:40.427Z,10.75
2019-04-26T02:41:41.890Z,10.75
2019-04-26T02:44:54.244Z,11.06
2019-04-26T02:48:15.073Z,11.19
2019-04-26T02:51:23.404Z,10.81
2019-04-26T02:54:47.256Z,10.81
2019-04-26T02:57:53.188Z,11.06
2019-04-26T03:00:54.674Z,10.94
2019-04-26T03:03:56.097Z,11.25
2019-04-26T03:07:03.969Z,11.12
2019-04-26T03:10:06.201Z,11.06
2019-04-26T03:13:12.179Z,10.75
2019-04-26T03:16:25.429Z,10.44
2019-04-26T03:19:43.591Z,10.69
2019-04-26T03:23:23.469Z,10.63
2019-04-26T03:26:54.248Z,10.44
2019-04-26T03:30:22.192Z,10.25
2019-04-26T03:33:54.256Z,10.19
2019-04-26T03:37:47.406Z,10.06
2019-04-26T03:41:14.114Z,10.19
2019-04-26T03:44:51.355Z,10.00
2019-04-26T03:48:09.335Z,10.00
2019-04-26T03:51:23.609Z,9.63
2019-04-26T03:54:27.791Z,9.44
2019-04-26T03:57:47.945Z,9.13
2019-04-26T04:00:53.429Z,9.38
2019-04-26T04:03:59.919Z,9.25
2019-04-26T04:07:04.986Z,9.06
2019-04-26T04:10:16.350Z,9.31
2019-04-26T04:13:50.806Z,9.00
2019-04-26T04:17:20.839Z,8.88
2019-04-26T04:21:14.902Z,8.88
2019-04-26T04:24:27.344Z,8.81
2019-04-26T04:27:40.046Z,8.69
2019-04-26T04:31:16.094Z,8.75
2019-04-26T04:34:33.907Z,8.56
2019-04-26T04:38:05.541Z,8.75
2019-04-26T04:41:16.784Z,8.81
2019-04-26T04:45:00.239Z,8.75
2019-04-26T04:48:33.044Z,8.81
2019-04-26T04:52:17.047Z,8.81
2019-04-26T04:55:33.927Z,8.94
2019-04-26T04:58:46.349Z,9.00
2019-04-26T05:02:24.276Z,9.13
2019-04-26T05:06:15.668Z,9.19
2019-04-26T05:09:31.383Z,9.06
2019-04-26T05:13:11.230Z,8.75
2019-04-26T05:17:11.643Z,8.63
2019-04-26T05:20:41.000Z,8.63
2019-04-26T05:24:15.903Z,8.88
2019-04-26T05:28:14.304Z,9.06
2019-04-26T05:31:52.411Z,9.25
2019-04-26T05:35:13.265Z,8.94
2019-04-26T05:38:47.883Z,8.88
2019-04-26T05:42:54.050Z,8.50
2019-04-26T05:46:55.805Z,8.50
2019-04-26T05:51:29.890Z,8.44
2019-04-26T05:55:18.916Z,8.44
2019-04-26T05:58:54.580Z,8.56
2019-04-26T06:03:09.230Z,8.75
2019-04-26T06:06:40.054Z,8.81
2019-04-26T06:10:41.356Z,8.75
2019-04-26T06:14:50.540Z,8.81
2019-04-26T06:19:08.696Z,8.81
2019-04-26T06:22:28.766Z,8.75
2019-04-26T06:25:48.605Z,8.88
2019-04-26T06:29:05.509Z,8.69
2019-04-26T06:32:30.593Z,8.63
2019-04-26T06:35:35.855Z,8.75
2019-04-26T06:39:26.410Z,8.88
2019-04-26T06:43:22.212Z,8.75
2019-04-26T06:47:12.615Z,8.94
2019-04-26T06:50:32.453Z,9.19
2019-04-26T06:54:12.143Z,9.13
2019-04-26T06:58:18.527Z,8.88
2019-04-26T07:01:34.790Z,9.00
2019-04-26T07:05:07.546Z,8.94
2019-04-26T07:09:01.154Z,9.00
2019-04-26T07:12:35.188Z,8.63
2019-04-26T07:16:22.267Z,8.88
2019-04-26T07:20:07.926Z,8.81
2019-04-26T07:24:36.130Z,8.75
2019-04-26T07:28:06.412Z,8.69
2019-04-26T07:31:50.392Z,8.63
2019-04-26T07:35:18.361Z,8.63
2019-04-26T07:39:20.055Z,8.69
2019-04-26T07:43:01.897Z,8.88
2019-04-26T07:46:49.549Z,8.69
2019-04-26T07:50:53.366Z,8.69
2019-04-26T07:54:49.352Z,8.75
2019-04-26T07:59:07.212Z,8.63
2019-04-26T08:02:42.747Z,8.69
2019-04-26T08:06:29.781Z,8.94
2019-04-26T08:09:34.444Z,8.81
2019-04-26T08:12:38.577Z,8.81
2019-04-26T08:16:04.875Z,8.75
2019-04-26T08:19:14.714Z,8.88
2019-04-26T08:22:22.855Z,9.00
2019-04-26T08:25:25.014Z,9.06
2019-04-26T08:28:29.465Z,9.13
2019-04-26T08:31:34.047Z,9.00
2019-04-26T08:34:37.356Z,8.94
2019-04-26T08:37:50.578Z,9.06
2019-04-26T08:40:52.982Z,9.13
2019-04-26T08:44:11.260Z,9.13
2019-04-26T08:47:24.511Z,9.06
2019-04-26T08:50:30.432Z,9.19
2019-04-26T08:53:35.123Z,9.25
2019-04-26T08:56:40.910Z,9.38
2019-04-26T08:59:48.493Z,9.38
2019-04-26T09:03:21.281Z,9.50
2019-04-26T09:06:39.983Z,9.38
2019-04-26T09:09:56.506Z,9.56
2019-04-26T09:12:51.251Z,9.63
2019-04-26T09:16:09.868Z,9.75
2019-04-26T09:19:11.551Z,9.63
2019-04-26T09:22:30.259Z,9.44
2019-04-26T09:25:39.234Z,9.50
2019-04-26T09:29:09.051Z,9.50
2019-04-26T09:32:12.958Z,9.56
2019-04-26T09:35:15.170Z,9.50
2019-04-26T09:38:17.712Z,9.63
2019-04-26T09:41:19.050Z,9.81
2019-04-26T09:44:27.291Z,9.81
2019-04-26T09:47:50.702Z,9.69
2019-04-26T09:50:54.617Z,9.69
2019-04-26T09:53:55.987Z,9.81
2019-04-26T09:56:57.353Z,10.00
2019-04-26T09:59:58.685Z,10.00
2019-04-26T10:03:01.651Z,9.94
2019-04-26T10:06:03.532Z,9.94
2019-04-26T10:09:10.323Z,9.75
2019-04-26T10:12:23.799Z,9.94
2019-04-26T10:15:35.393Z,9.75
2019-04-26T10:18:37.277Z,10.06
2019-04-26T10:21:38.606Z,10.06
2019-04-26T10:24:40.055Z,10.19
2019-04-26T10:27:42.500Z,10.00
2019-04-26T10:30:44.212Z,10.13
2019-04-26T10:33:45.596Z,9.94
2019-04-26T10:36:46.961Z,9.94
2019-04-26T10:39:48.398Z,9.75
2019-04-26T10:42:49.772Z,9.63
2019-04-26T10:45:53.945Z,9.75
2019-04-26T10:48:54.383Z,9.94
2019-04-26T10:51:55.704Z,10.06
2019-04-26T10:55:12.242Z,9.75
2019-04-26T10:58:37.829Z,9.75
2019-04-26T11:01:39.499Z,9.75
2019-04-26T11:04:41.452Z,9.88
2019-04-26T11:07:43.866Z,9.75
2019-04-26T11:10:48.833Z,9.88
2019-04-26T11:13:48.358Z,10.00
2019-04-26T11:16:49.715Z,10.00
2019-04-26T11:19:51.188Z,9.94
2019-04-26T11:22:52.490Z,9.94
2019-04-26T11:25:53.840Z,10.31
2019-04-26T11:28:55.826Z,10.56
2019-04-26T11:32:02.563Z,10.38
2019-04-26T11:35:01.605Z,10.56
2019-04-26T11:38:03.083Z,10.75
2019-04-26T11:41:06.208Z,10.75
2019-04-26T11:44:07.493Z,10.63
2019-04-26T11:47:08.980Z,10.88
2019-04-26T11:50:12.522Z,10.69
2019-04-26T11:53:14.103Z,10.88
2019-04-26T11:56:18.481Z,10.69
2019-04-26T11:59:19.836Z,10.88
2019-04-26T12:02:21.194Z,11.06
2019-04-26T12:05:50.424Z,11.06
2019-04-26T12:08:55.472Z,11.06
2019-04-26T12:12:04.360Z,11.31
2019-04-26T12:15:03.861Z,11.50
2019-04-26T12:18:05.571Z,11.63
2019-04-26T12:21:07.240Z,11.44
2019-04-26T12:24:08.634Z,11.69
2019-04-26T12:27:10.636Z,11.63
2019-04-26T12:30:12.366Z,11.38
2019-04-26T12:33:13.801Z,11.69
2019-04-26T12:36:15.296Z,11.44
2019-04-26T12:39:17.637Z,11.69
2019-04-26T12:42:19.078Z,11.63
2019-04-26T12:45:51.524Z,11.50
2019-04-26T12:48:51.567Z,11.69
2019-04-26T12:51:53.031Z,11.50
2019-04-26T12:54:54.457Z,11.44
2019-04-26T12:57:55.879Z,11.56
2019-04-26T13:00:57.912Z,11.75
2019-04-26T13:04:06.080Z,11.75
2019-04-26T13:07:23.432Z,11.44
2019-04-26T13:10:37.461Z,11.25
2019-04-26T13:13:43.115Z,11.31
2019-04-26T13:16:57.222Z,11.44
2019-04-26T13:19:57.686Z,11.31
2019-04-26T13:22:59.075Z,11.12
2019-04-26T13:26:01.573Z,11.38
2019-04-26T13:29:03.199Z,11.44
2019-04-26T13:32:04.576Z,11.75
2019-04-26T13:35:07.188Z,11.94
2019-04-26T13:38:10.099Z,12.00
2019-04-26T13:41:11.552Z,11.69
2019-04-26T13:44:12.914Z,12.06
2019-04-26T13:47:28.207Z,12.00
2019-04-26T13:50:39.036Z,12.44
2019-04-26T13:53:40.492Z,12.25
2019-04-26T13:56:41.865Z,12.69
2019-04-26T13:59:43.220Z,12.13
2019-04-26T14:02:44.661Z,12.25
2019-04-26T14:05:46.019Z,12.50
2019-04-26T14:08:47.425Z,12.56
2019-04-26T14:11:48.797Z,12.31
2019-04-26T14:14:50.147Z,12.31
2019-04-26T14:17:51.598Z,12.81
2019-04-26T14:20:54.641Z,12.94
2019-04-26T14:24:13.758Z,13.00
2019-04-26T14:27:18.222Z,12.94
2019-04-26T14:30:20.189Z,13.44
2019-04-26T14:33:21.643Z,13.44
2019-04-26T14:36:26.817Z,13.25
2019-04-26T14:39:35.270Z,13.25
2019-04-26T14:42:34.485Z,13.50
2019-04-26T14:45:32.553Z,13.00
2019-04-26T14:48:36.642Z,13.44
2019-04-26T14:51:40.699Z,13.62
2019-04-26T14:54:46.164Z,13.62
2019-04-26T14:57:46.797Z,13.44
2019-04-26T15:00:51.431Z,14.56
2019-04-26T15:04:13.045Z,13.94
2019-04-26T15:07:14.600Z,13.88
2019-04-26T15:10:18.124Z,13.31
2019-04-26T15:13:23.083Z,13.62
2019-04-26T15:16:24.433Z,13.44
2019-04-26T15:19:27.600Z,13.69
2019-04-26T15:22:29.027Z,13.25
2019-04-26T15:25:31.814Z,13.19
2019-04-26T15:28:33.684Z,13.13
2019-04-26T15:31:35.131Z,13.06
2019-04-26T15:34:36.553Z,13.13
2019-04-26T15:37:37.987Z,13.00
2019-04-26T15:40:58.330Z,13.13
2019-04-26T15:44:28.209Z,12.94
2019-04-26T15:48:02.789Z,13.00
2019-04-26T15:51:04.302Z,12.88
2019-04-26T15:54:58.969Z,12.94
2019-04-26T15:58:03.549Z,13.13
2019-04-26T16:01:02.844Z,13.13
2019-04-26T16:04:32.376Z,12.88
2019-04-26T16:08:15.462Z,12.88
2019-04-26T16:11:16.820Z,12.81
2019-04-26T16:14:18.213Z,12.81
2019-04-26T16:17:19.628Z,12.81
2019-04-26T16:20:22.132Z,12.94
2019-04-26T16:23:24.278Z,12.88
2019-04-26T16:26:26.873Z,12.88
2019-04-26T16:29:46.841Z,12.81
2019-04-26T16:33:16.400Z,12.75
2019-04-26T16:36:17.784Z,12.75
2019-04-26T16:39:19.291Z,12.63
2019-04-26T16:42:20.786Z,12.56
2019-04-26T16:45:22.725Z,12.63
2019-04-26T16:48:25.718Z,12.56
2019-04-26T16:51:28.365Z,12.69
2019-04-26T16:54:29.773Z,12.63
2019-04-26T16:57:31.136Z,12.56
2019-04-26T17:00:50.754Z,12.37
2019-04-26T17:03:38.212Z,12.44
2019-04-26T17:06:44.275Z,12.44
2019-04-26T17:09:56.993Z,12.25
2019-04-26T17:12:46.306Z,12.25
2019-04-26T17:15:52.052Z,12.19
2019-04-26T17:18:51.028Z,12.19
2019-04-26T17:22:15.958Z,12.25
2019-04-26T17:25:42.338Z,12.25
2019-04-26T17:28:44.774Z,12.25
2019-04-26T17:31:46.258Z,12.25
2019-04-26T17:34:47.703Z,12.25
2019-04-26T17:37:50.200Z,12.06
2019-04-26T17:40:51.620Z,11.94
2019-04-26T17:44:05.938Z,11.94
2019-04-26T17:47:00.187Z,11.94
2019-04-26T17:50:06.211Z,12.06
2019-04-26T17:53:06.587Z,11.88
2019-04-26T17:56:08.342Z,12.00
2019-04-26T17:59:13.793Z,11.88
2019-04-26T18:02:31.564Z,11.81
2019-04-26T18:05:19.070Z,11.81
2019-04-26T18:08:35.801Z,11.81
2019-04-26T18:11:24.726Z,11.88
2019-04-26T18:14:29.679Z,11.88
2019-04-26T18:17:58.574Z,11.88
2019-04-26T18:21:20.387Z,11.94
2019-04-26T18:24:23.370Z,11.75
2019-04-26T18:27:24.697Z,11.69
2019-04-26T18:30:27.114Z,11.69
2019-04-26T18:33:28.503Z,11.69
2019-04-26T18:36:31.923Z,11.63
2019-04-26T18:39:33.301Z,11.63
2019-04-26T18:42:37.638Z,11.50
2019-04-26T18:45:37.855Z,11.44
2019-04-26T18:48:41.978Z,11.44
2019-04-26T18:51:48.107Z,11.31
2019-04-26T18:54:51.646Z,11.38
2019-04-26T18:57:58.200Z,11.31
2019-04-26T19:00:57.421Z,11.25
2019-04-26T19:04:00.639Z,11.06
2019-04-26T19:07:03.169Z,11.06
2019-04-26T19:10:06.525Z,10.94
2019-04-26T19:13:32.131Z,10.88
2019-04-26T19:16:46.345Z,11.00
2019-04-26T19:20:09.256Z,10.94
2019-04-26T19:23:12.174Z,10.88
2019-04-26T19:26:15.040Z,10.81
2019-04-26T19:29:18.716Z,10.88
2019-04-26T19:32:21.410Z,10.94
2019-04-26T19:35:22.965Z,10.88
2019-04-26T19:38:24.494Z,10.81
2019-04-26T19:41:27.185Z,10.69
2019-04-26T19:44:28.633Z,10.69
2019-04-26T19:47:48.997Z,10.56
2019-04-26T19:50:54.713Z,10.56
2019-04-26T19:54:18.519Z,10.63
2019-04-26T19:57:23.892Z,10.56
2019-04-26T20:00:25.629Z,10.50
2019-04-26T20:03:27.088Z,10.50
2019-04-26T20:06:28.496Z,10.44
2019-04-26T20:09:29.889Z,10.38
2019-04-26T20:12:35.448Z,10.44
2019-04-26T20:15:34.317Z,10.44
2019-04-26T20:18:38.942Z,10.44
2019-04-26T20:21:45.437Z,10.50
2019-04-26T20:24:48.556Z,10.56
2019-04-26T20:27:48.973Z,10.44
2019-04-26T20:31:05.831Z,10.31
2019-04-26T20:34:05.663Z,10.31
2019-04-26T20:37:06.147Z,10.44
2019-04-26T20:40:17.961Z,10.38
2019-04-26T20:43:23.794Z,10.31
2019-04-26T20:46:15.754Z,10.13
2019-04-26T20:49:19.254Z,10.00
2019-04-26T20:52:23.195Z,9.94
2019-04-26T20:55:30.229Z,9.94
2019-04-26T20:58:26.555Z,9.94
2019-04-26T21:01:27.972Z,10.19
2019-04-26T21:04:37.949Z,10.06
2019-04-26T21:07:32.631Z,9.94
2019-04-26T21:10:35.897Z,9.81
2019-04-26T21:13:36.991Z,9.63
2019-04-26T21:16:38.341Z,9.50
2019-04-26T21:19:39.650Z,9.56
2019-04-26T21:22:41.947Z,9.56
2019-04-26T21:26:02.821Z,9.69
2019-04-26T21:29:20.497Z,9.81
2019-04-26T21:32:40.659Z,9.69
2019-04-26T21:35:57.684Z,9.63
2019-04-26T21:39:39.394Z,9.63
2019-04-26T21:42:43.361Z,9.56
2019-04-26T21:45:44.036Z,9.56
2019-04-26T21:48:45.543Z,9.50
2019-04-26T21:51:51.312Z,9.50
2019-04-26T21:54:53.130Z,9.50
2019-04-26T21:57:53.838Z,9.50
2019-04-26T22:01:19.059Z,9.56
2019-04-26T22:04:19.147Z,9.63
2019-04-26T22:07:20.555Z,9.63
2019-04-26T22:10:28.822Z,9.56
2019-04-26T22:13:37.256Z,9.56
2019-04-26T22:16:47.165Z,9.38
2019-04-26T22:20:12.299Z,9.31
2019-04-26T22:23:30.259Z,9.38
2019-04-26T22:26:31.958Z,9.38
2019-04-26T22:29:33.462Z,9.31
2019-04-26T22:32:34.797Z,9.38
2019-04-26T22:35:36.979Z,9.25
2019-04-26T22:38:38.318Z,9.19
2019-04-26T22:41:39.619Z,9.25
2019-04-26T22:44:45.794Z,9.25
2019-04-26T22:47:53.663Z,9.19
2019-04-26T22:50:58.550Z,9.13
2019-04-26T22:54:04.401Z,9.00
2019-04-26T22:57:01.068Z,8.94
2019-04-26T23:00:02.375Z,8.81
2019-04-26T23:03:07.311Z,8.88
2019-04-26T23:06:11.638Z,8.75
2019-04-26T23:09:16.937Z,8.75
2019-04-26T23:12:35.818Z,8.63
2019-04-26T23:16:00.556Z,8.63
2019-04-26T23:19:20.426Z,8.69
2019-04-26T23:22:26.351Z,8.69
2019-04-26T23:25:27.739Z,8.63
2019-04-26T23:28:34.010Z,8.63
2019-04-26T23:31:30.938Z,8.69
2019-04-26T23:34:33.691Z,8.69
2019-04-26T23:37:35.069Z,8.63
2019-04-26T23:40:36.408Z,8.75
2019-04-26T23:43:37.728Z,8.75
2019-04-26T23:46:39.081Z,9.00
2019-04-26T23:49:40.429Z,9.19
2019-04-26T23:52:43.569Z,9.44
2019-04-26T23:55:45.340Z,9.56
2019-04-26T23:58:46.649Z,9.44
